CES5801 ZPPP-ZSSS
Flight info
| Callsign | CES5801 |
|---|---|
| Flight time | N/A |
| Altitude | 33100 |
| Route | NODIB W137 LPS A581 WHA R343 PK |
| Aircraft | A339/H-SADE1E2E3GHIJ3J5M1P2RWXY/LB2D1 |
Departure
| Time | 2026-05-07 10:55 |
|---|---|
| Airport | Kunming Changshui International Airport (ZPPP) |
Arrival
| Time | N/A |
|---|---|
| Airport | Shanghai Hongqiao International Airport (ZSSS) |
| Time | Latitude | Longitude | Altitude | Speed | Heading |
|---|---|---|---|---|---|
| 2026-05-07 10:41 | 25.10090 | 102.92191 | 6919 ft | 0 kts | 217° |
| 2026-05-07 10:46 | 25.10101 | 102.92200 | 6919 ft | 2 kts | 209° |
| 2026-05-07 10:46 | 25.10114 | 102.92207 | 6919 ft | 2 kts | 210° |
| 2026-05-07 10:46 | 25.10128 | 102.92217 | 6919 ft | 2 kts | 224° |
| 2026-05-07 10:47 | 25.10137 | 102.92231 | 6919 ft | 2 kts | 252° |
| 2026-05-07 10:47 | 25.10139 | 102.92248 | 6919 ft | 2 kts | 275° |
| 2026-05-07 10:47 | 25.10135 | 102.92267 | 6919 ft | 2 kts | 300° |
| 2026-05-07 10:47 | 25.10125 | 102.92281 | 6919 ft | 2 kts | 315° |
| 2026-05-07 10:48 | 25.10117 | 102.92290 | 6919 ft | 0 kts | 312° |
| 2026-05-07 10:48 | 25.10114 | 102.92293 | 6919 ft | 0 kts | 310° |
| 2026-05-07 10:51 | 25.10117 | 102.92289 | 6919 ft | 5 kts | 310° |
| 2026-05-07 10:51 | 25.10153 | 102.92242 | 6919 ft | 8 kts | 308° |
| 2026-05-07 10:51 | 25.10187 | 102.92191 | 6919 ft | 8 kts | 303° |
| 2026-05-07 10:51 | 25.10254 | 102.92052 | 6919 ft | 24 kts | 300° |
| 2026-05-07 10:52 | 25.10317 | 102.91943 | 6919 ft | 0 kts | 303° |
| 2026-05-07 10:53 | 25.10320 | 102.91936 | 6919 ft | 2 kts | 303° |
| 2026-05-07 10:53 | 25.10339 | 102.91905 | 6919 ft | 6 kts | 305° |
| 2026-05-07 10:53 | 25.10373 | 102.91856 | 6919 ft | 8 kts | 319° |
| 2026-05-07 10:53 | 25.10423 | 102.91863 | 6919 ft | 8 kts | 32° |
| 2026-05-07 10:54 | 25.10483 | 102.91911 | 6919 ft | 11 kts | 37° |
| 2026-05-07 10:54 | 25.10603 | 102.92018 | 6919 ft | 47 kts | 39° |
| 2026-05-07 10:54 | 25.11025 | 102.92392 | 6919 ft | 105 kts | 38° |
| 2026-05-07 10:54 | 25.11724 | 102.93004 | 6919 ft | 152 kts | 38° |
| 2026-05-07 10:55 | 25.12660 | 102.93835 | 6988 ft | 186 kts | 39° |
| 2026-05-07 10:55 | 25.13668 | 102.94776 | 7452 ft | 190 kts | 40° |
| 2026-05-07 10:55 | 25.14669 | 102.95711 | 8040 ft | 190 kts | 34° |
| 2026-05-07 10:55 | 25.15583 | 102.96293 | 8333 ft | 193 kts | 26° |
| 2026-05-07 10:56 | 25.16906 | 102.96983 | 8573 ft | 206 kts | 26° |
| 2026-05-07 10:56 | 25.18287 | 102.97725 | 8819 ft | 218 kts | 27° |
| 2026-05-07 10:56 | 25.19730 | 102.98546 | 9191 ft | 224 kts | 28° |
| 2026-05-07 10:56 | 25.21200 | 102.99413 | 9660 ft | 226 kts | 29° |
| 2026-05-07 10:57 | 25.22640 | 103.00326 | 10110 ft | 228 kts | 38° |
| 2026-05-07 10:57 | 25.23627 | 103.01807 | 10540 ft | 231 kts | 71° |
| 2026-05-07 10:57 | 25.23791 | 103.03665 | 10953 ft | 235 kts | 94° |
| 2026-05-07 10:57 | 25.23633 | 103.05550 | 11333 ft | 240 kts | 96° |
| 2026-05-07 10:58 | 25.23448 | 103.07500 | 11725 ft | 244 kts | 97° |
| 2026-05-07 10:58 | 25.23266 | 103.09495 | 12127 ft | 248 kts | 97° |
| 2026-05-07 10:58 | 25.23094 | 103.11491 | 12531 ft | 252 kts | 97° |
| 2026-05-07 10:58 | 25.22922 | 103.13530 | 12928 ft | 255 kts | 97° |
| 2026-05-07 10:59 | 25.22755 | 103.15578 | 13305 ft | 259 kts | 97° |
| 2026-05-07 10:59 | 25.22590 | 103.17596 | 13595 ft | 268 kts | 98° |
| 2026-05-07 10:59 | 25.22418 | 103.19677 | 13821 ft | 281 kts | 97° |
| 2026-05-07 10:59 | 25.22237 | 103.21883 | 14059 ft | 294 kts | 97° |
| 2026-05-07 11:00 | 25.22051 | 103.24173 | 14290 ft | 308 kts | 97° |
| 2026-05-07 11:00 | 25.21856 | 103.26582 | 14529 ft | 322 kts | 97° |
| 2026-05-07 11:00 | 25.21651 | 103.29103 | 14767 ft | 336 kts | 97° |
| 2026-05-07 11:00 | 25.21437 | 103.31757 | 15000 ft | 350 kts | 96° |
| 2026-05-07 11:01 | 25.21623 | 103.34456 | 15209 ft | 367 kts | 75° |
| 2026-05-07 11:01 | 25.22700 | 103.37045 | 15450 ft | 379 kts | 53° |
| 2026-05-07 11:01 | 25.24579 | 103.39147 | 15688 ft | 388 kts | 34° |
| 2026-05-07 11:01 | 25.26861 | 103.40768 | 15909 ft | 399 kts | 29° |
| 2026-05-07 11:02 | 25.29307 | 103.42390 | 16118 ft | 412 kts | 29° |
| 2026-05-07 11:02 | 25.31754 | 103.44087 | 16319 ft | 425 kts | 31° |
| 2026-05-07 11:02 | 25.34277 | 103.45924 | 16563 ft | 436 kts | 32° |
| 2026-05-07 11:02 | 25.36811 | 103.47833 | 16973 ft | 442 kts | 33° |
| 2026-05-07 11:03 | 25.39346 | 103.49777 | 17424 ft | 445 kts | 33° |
| 2026-05-07 11:03 | 25.41895 | 103.51746 | 17862 ft | 449 kts | 33° |
| 2026-05-07 11:03 | 25.43597 | 103.53066 | 18162 ft | 452 kts | 33° |
| 2026-05-07 11:03 | 25.47040 | 103.55733 | 18802 ft | 455 kts | 32° |
| 2026-05-07 11:04 | 25.49615 | 103.57730 | 19261 ft | 457 kts | 33° |
| 2026-05-07 11:04 | 25.52118 | 103.59965 | 19680 ft | 463 kts | 41° |
| 2026-05-07 11:04 | 25.54329 | 103.62577 | 20116 ft | 468 kts | 49° |
| 2026-05-07 11:04 | 25.56221 | 103.65504 | 20553 ft | 471 kts | 55° |
| 2026-05-07 11:05 | 25.57998 | 103.68562 | 20949 ft | 474 kts | 56° |
| 2026-05-07 11:05 | 25.59769 | 103.71677 | 21319 ft | 477 kts | 56° |
| 2026-05-07 11:05 | 25.61568 | 103.74836 | 21700 ft | 480 kts | 56° |
| 2026-05-07 11:05 | 25.63339 | 103.77925 | 22084 ft | 482 kts | 56° |
| 2026-05-07 11:06 | 25.65151 | 103.81067 | 22450 ft | 484 kts | 56° |
| 2026-05-07 11:06 | 25.66963 | 103.84199 | 22821 ft | 487 kts | 56° |
| 2026-05-07 11:06 | 25.68795 | 103.87363 | 23175 ft | 489 kts | 56° |
| 2026-05-07 11:06 | 25.70624 | 103.90523 | 23499 ft | 492 kts | 56° |
| 2026-05-07 11:07 | 25.72481 | 103.93731 | 23853 ft | 495 kts | 56° |
| 2026-05-07 11:07 | 25.74350 | 103.96963 | 24214 ft | 497 kts | 56° |
| 2026-05-07 11:07 | 25.76204 | 104.00173 | 24575 ft | 499 kts | 56° |
| 2026-05-07 11:07 | 25.78083 | 104.03428 | 24898 ft | 502 kts | 56° |
| 2026-05-07 11:08 | 25.79959 | 104.06679 | 25221 ft | 505 kts | 56° |
| 2026-05-07 11:08 | 25.81883 | 104.09968 | 25522 ft | 508 kts | 55° |
| 2026-05-07 11:08 | 25.83813 | 104.13238 | 25851 ft | 510 kts | 55° |
| 2026-05-07 11:08 | 25.85768 | 104.16553 | 26201 ft | 512 kts | 55° |
| 2026-05-07 11:09 | 25.87695 | 104.19828 | 26517 ft | 514 kts | 55° |
| 2026-05-07 11:09 | 25.89663 | 104.23177 | 26810 ft | 517 kts | 55° |
| 2026-05-07 11:09 | 25.91620 | 104.26512 | 27091 ft | 520 kts | 55° |
| 2026-05-07 11:09 | 25.93606 | 104.29902 | 27368 ft | 523 kts | 55° |
| 2026-05-07 11:10 | 25.95569 | 104.33257 | 27650 ft | 525 kts | 55° |
| 2026-05-07 11:10 | 25.97580 | 104.36699 | 27949 ft | 527 kts | 55° |
| 2026-05-07 11:10 | 25.99569 | 104.40101 | 28240 ft | 529 kts | 54° |
| 2026-05-07 11:10 | 26.01710 | 104.43391 | 28518 ft | 529 kts | 49° |
| 2026-05-07 11:11 | 26.04131 | 104.46496 | 28803 ft | 530 kts | 43° |
| 2026-05-07 11:11 | 26.06786 | 104.49332 | 29082 ft | 529 kts | 38° |
| 2026-05-07 11:11 | 26.09600 | 104.51994 | 29404 ft | 530 kts | 36° |
| 2026-05-07 11:11 | 26.12412 | 104.54578 | 29813 ft | 528 kts | 36° |
| 2026-05-07 11:12 | 26.15262 | 104.57187 | 30251 ft | 526 kts | 36° |
| 2026-05-07 11:12 | 26.18065 | 104.59757 | 30675 ft | 525 kts | 36° |
| 2026-05-07 11:12 | 26.20879 | 104.62357 | 31090 ft | 523 kts | 36° |
| 2026-05-07 11:12 | 26.23645 | 104.64922 | 31491 ft | 522 kts | 36° |
| 2026-05-07 11:13 | 26.26437 | 104.67515 | 31879 ft | 521 kts | 36° |
| 2026-05-07 11:13 | 26.29224 | 104.70109 | 32239 ft | 521 kts | 36° |
| 2026-05-07 11:13 | 26.32017 | 104.72712 | 32594 ft | 520 kts | 36° |
| 2026-05-07 11:13 | 26.34762 | 104.75273 | 33014 ft | 518 kts | 36° |
| 2026-05-07 11:14 | 26.37541 | 104.77865 | 33440 ft | 517 kts | 35° |
| 2026-05-07 11:14 | 26.40259 | 104.80402 | 33822 ft | 516 kts | 36° |
| 2026-05-07 11:14 | 26.43012 | 104.82976 | 34129 ft | 516 kts | 35° |
| 2026-05-07 11:14 | 26.45789 | 104.85572 | 34406 ft | 517 kts | 35° |
| 2026-05-07 11:15 | 26.48529 | 104.88139 | 34673 ft | 518 kts | 35° |
| 2026-05-07 11:15 | 26.51275 | 104.90710 | 34902 ft | 519 kts | 35° |
| 2026-05-07 11:15 | 26.54047 | 104.93309 | 35154 ft | 520 kts | 35° |
| 2026-05-07 11:15 | 26.56784 | 104.95910 | 35344 ft | 523 kts | 37° |
| 2026-05-07 11:16 | 26.61888 | 105.01770 | 35361 ft | 530 kts | 46° |
| 2026-05-07 11:16 | 26.66204 | 105.08472 | 35358 ft | 535 kts | 56° |
| 2026-05-07 11:17 | 26.69645 | 105.15900 | 35361 ft | 539 kts | 63° |
| 2026-05-07 11:17 | 26.72681 | 105.23573 | 35359 ft | 540 kts | 63° |
| 2026-05-07 11:18 | 26.75702 | 105.31222 | 35354 ft | 539 kts | 63° |
| 2026-05-07 11:18 | 26.78749 | 105.38870 | 35345 ft | 540 kts | 63° |
| 2026-05-07 11:19 | 26.81802 | 105.46516 | 35329 ft | 539 kts | 63° |
| 2026-05-07 11:19 | 26.84867 | 105.54203 | 35325 ft | 540 kts | 63° |
| 2026-05-07 11:20 | 26.87911 | 105.61851 | 35314 ft | 539 kts | 63° |
| 2026-05-07 11:20 | 26.90959 | 105.69523 | 35314 ft | 540 kts | 63° |
| 2026-05-07 11:21 | 26.93993 | 105.77179 | 35311 ft | 541 kts | 63° |
| 2026-05-07 11:21 | 26.97038 | 105.84874 | 35305 ft | 541 kts | 63° |
| 2026-05-07 11:22 | 27.00066 | 105.92548 | 35288 ft | 542 kts | 63° |
| 2026-05-07 11:22 | 27.03111 | 106.00278 | 35284 ft | 542 kts | 63° |
| 2026-05-07 11:23 | 27.06388 | 106.07884 | 35273 ft | 540 kts | 59° |
| 2026-05-07 11:23 | 27.09810 | 106.15327 | 35271 ft | 540 kts | 59° |
| 2026-05-07 11:24 | 27.13236 | 106.22800 | 35272 ft | 540 kts | 59° |
| 2026-05-07 11:24 | 27.16664 | 106.30325 | 35267 ft | 540 kts | 59° |
| 2026-05-07 11:25 | 27.20055 | 106.37788 | 35261 ft | 541 kts | 59° |
| 2026-05-07 11:25 | 27.23478 | 106.45319 | 35256 ft | 540 kts | 59° |
| 2026-05-07 11:26 | 27.26880 | 106.52814 | 35248 ft | 540 kts | 59° |
| 2026-05-07 11:26 | 27.30299 | 106.60365 | 35248 ft | 541 kts | 59° |
| 2026-05-07 11:27 | 27.33705 | 106.67892 | 35243 ft | 541 kts | 59° |
| 2026-05-07 11:27 | 27.37105 | 106.75429 | 35247 ft | 542 kts | 59° |
| 2026-05-07 11:28 | 27.40486 | 106.82964 | 35249 ft | 542 kts | 59° |
| 2026-05-07 11:28 | 27.43862 | 106.90520 | 35243 ft | 542 kts | 59° |
| 2026-05-07 11:29 | 27.47242 | 106.98094 | 35249 ft | 543 kts | 59° |
| 2026-05-07 11:29 | 27.50649 | 107.05650 | 35253 ft | 542 kts | 59° |
| 2026-05-07 11:30 | 27.54078 | 107.13219 | 35250 ft | 542 kts | 59° |
| 2026-05-07 11:30 | 27.57483 | 107.20763 | 35249 ft | 542 kts | 59° |
| 2026-05-07 11:31 | 27.60910 | 107.28359 | 35246 ft | 543 kts | 59° |
| 2026-05-07 11:31 | 27.64304 | 107.35892 | 35240 ft | 543 kts | 59° |
| 2026-05-07 11:32 | 27.69414 | 107.47272 | 35235 ft | 542 kts | 59° |
| 2026-05-07 11:33 | 27.72797 | 107.54823 | 35234 ft | 542 kts | 59° |
| 2026-05-07 11:33 | 27.76182 | 107.62394 | 35234 ft | 543 kts | 59° |
| 2026-05-07 11:34 | 27.79576 | 107.70003 | 35233 ft | 543 kts | 59° |
| 2026-05-07 11:34 | 27.81851 | 107.75114 | 35236 ft | 543 kts | 59° |